KMTC/MTC METAR and TAF weather

Enter ICAO airport designator
Station Type Date Time Source
KMTC METAR 2021/06/24 06:56 UTC NOAA

KMTC 240656Z AUTO 17008KT 10SM BKN095 20/17 A3013 RMK AO2 SLP206 T01950171 $


Station Type Date Time Source
KMTC Decoded METAR 2021/06/24 06:56 UTC NOAA

Selfridge Air National Guard Base, MI, United States (KMTC) 42-37N 082-50W
Jun 24, 2021 - 02:56 AM EDT / 2021.06.24 0656 UTC
Wind: from the S (170 degrees) at 9 MPH (8 KT):0
Visibility: 10 mile(s):0
Sky conditions: mostly cloudy
Temperature: 67.1 F (19.5 C)
Dew Point: 62.8 F (17.1 C)
Relative Humidity: 86%
Pressure (altimeter): 30.13 in. Hg (1020 hPa)
ob: KMTC 240656Z AUTO 17008KT 10SM BKN095 20/17 A3013 RMK AO2 SLP206 T01950171
cycle: 7

Station Type Date Time Source
KMTC TAF 2021/06/24 01:06 UTC NOAA

TAF KMTC 240100Z 2401/2507 18009KT 9999 BKN070 BKN200 QNH3010INS
TEMPO 2405/2408 8000 -SHRA BKN070
BECMG 2413/2414 18015G20KT 9999 SCT120 QNH2999INS
BECMG 2422/2423 18009KT 9999 SCT120 QNH2998INS TX29/2421Z TN17/2410Z LAST NO
AMDS AFT 2403 NEXT 2409

Example: see airport list